sensor_id;sensor_type;location;lat;lon;timestamp;P1;durP1;ratioP1;P2;durP2;ratioP2
23206;SDS011;11773;52.570;13.052;2023-08-01T00:00:33;0.97;;;0.97;;
23206;SDS011;11773;52.570;13.052;2023-08-01T00:03:03;1.27;;;1.17;;
23206;SDS011;11773;52.570;13.052;2023-08-01T00:05:33;0.90;;;0.90;;
23206;SDS011;11773;52.570;13.052;2023-08-01T00:08:02;0.90;;;0.90;;
23206;SDS011;11773;52.570;13.052;2023-08-01T00:10:32;1.30;;;1.20;;
23206;SDS011;11773;52.570;13.052;2023-08-01T00:13:01;1.17;;;0.90;;
23206;SDS011;11773;52.570;13.052;2023-08-01T00:15:31;1.20;;;1.10;;
23206;SDS011;11773;52.570;13.052;2023-08-01T00:18:01;1.10;;;1.00;;
23206;SDS011;11773;52.570;13.052;2023-08-01T00:20:30;1.70;;;1.03;;
23206;SDS011;11773;52.570;13.052;2023-08-01T00:23:00;1.20;;;1.10;;
23206;SDS011;11773;52.570;13.052;2023-08-01T00:25:30;2.03;;;1.20;;
23206;SDS011;11773;52.570;13.052;2023-08-01T00:27:59;1.10;;;1.00;;
23206;SDS011;11773;52.570;13.052;2023-08-01T00:30:29;1.10;;;1.10;;
23206;SDS011;11773;52.570;13.052;2023-08-01T00:32:58;1.00;;;1.00;;
23206;SDS011;11773;52.570;13.052;2023-08-01T00:35:28;0.97;;;0.93;;
23206;SDS011;11773;52.570;13.052;2023-08-01T00:37:57;1.17;;;1.07;;
23206;SDS011;11773;52.570;13.052;2023-08-01T00:40:30;1.40;;;1.30;;
23206;SDS011;11773;52.570;13.052;2023-08-01T00:43:01;0.90;;;0.87;;
23206;SDS011;11773;52.570;13.052;2023-08-01T00:45:30;1.10;;;1.00;;
23206;SDS011;11773;52.570;13.052;2023-08-01T00:48:00;1.17;;;1.07;;
23206;SDS011;11773;52.570;13.052;2023-08-01T00:50:30;1.10;;;1.00;;
23206;SDS011;11773;52.570;13.052;2023-08-01T00:53:00;0.60;;;0.60;;
23206;SDS011;11773;52.570;13.052;2023-08-01T00:55:30;0.90;;;0.90;;
23206;SDS011;11773;52.570;13.052;2023-08-01T00:58:02;0.83;;;0.83;;
23206;SDS011;11773;52.570;13.052;2023-08-01T01:00:32;1.20;;;0.93;;
23206;SDS011;11773;52.570;13.052;2023-08-01T01:03:02;1.27;;;1.17;;
23206;SDS011;11773;52.570;13.052;2023-08-01T01:05:34;0.70;;;0.70;;
23206;SDS011;11773;52.570;13.052;2023-08-01T01:08:06;0.80;;;0.80;;
23206;SDS011;11773;52.570;13.052;2023-08-01T01:10:37;0.90;;;0.90;;
23206;SDS011;11773;52.570;13.052;2023-08-01T01:13:06;0.70;;;0.70;;
23206;SDS011;11773;52.570;13.052;2023-08-01T01:15:36;0.50;;;0.50;;
23206;SDS011;11773;52.570;13.052;2023-08-01T01:18:05;0.63;;;0.63;;
23206;SDS011;11773;52.570;13.052;2023-08-01T01:20:35;0.70;;;0.70;;
23206;SDS011;11773;52.570;13.052;2023-08-01T01:23:05;0.70;;;0.70;;
23206;SDS011;11773;52.570;13.052;2023-08-01T01:25:37;0.80;;;0.80;;
23206;SDS011;11773;52.570;13.052;2023-08-01T01:28:07;0.70;;;0.70;;
23206;SDS011;11773;52.570;13.052;2023-08-01T01:30:39;1.13;;;1.03;;
23206;SDS011;11773;52.570;13.052;2023-08-01T01:33:11;1.00;;;0.90;;
23206;SDS011;11773;52.570;13.052;2023-08-01T01:35:41;1.47;;;1.37;;
23206;SDS011;11773;52.570;13.052;2023-08-01T01:38:11;1.23;;;1.03;;
23206;SDS011;11773;52.570;13.052;2023-08-01T01:40:41;1.10;;;0.90;;
23206;SDS011;11773;52.570;13.052;2023-08-01T01:43:10;1.20;;;1.10;;
23206;SDS011;11773;52.570;13.052;2023-08-01T01:45:40;1.37;;;1.27;;
23206;SDS011;11773;52.570;13.052;2023-08-01T01:48:09;1.33;;;1.10;;
23206;SDS011;11773;52.570;13.052;2023-08-01T01:50:39;1.30;;;1.20;;
23206;SDS011;11773;52.570;13.052;2023-08-01T01:53:09;2.33;;;1.40;;
23206;SDS011;11773;52.570;13.052;2023-08-01T01:55:38;0.70;;;0.70;;
23206;SDS011;11773;52.570;13.052;2023-08-01T01:58:08;1.17;;;1.07;;
23206;SDS011;11773;52.570;13.052;2023-08-01T02:00:37;1.07;;;1.00;;
23206;SDS011;11773;52.570;13.052;2023-08-01T02:03:07;0.90;;;0.90;;
23206;SDS011;11773;52.570;13.052;2023-08-01T02:05:39;0.67;;;0.63;;
23206;SDS011;11773;52.570;13.052;2023-08-01T02:08:09;1.10;;;1.00;;
23206;SDS011;11773;52.570;13.052;2023-08-01T02:10:38;1.27;;;1.17;;
23206;SDS011;11773;52.570;13.052;2023-08-01T02:13:08;0.63;;;0.63;;
23206;SDS011;11773;52.570;13.052;2023-08-01T02:15:37;0.60;;;0.60;;
23206;SDS011;11773;52.570;13.052;2023-08-01T02:18:07;1.10;;;1.00;;
23206;SDS011;11773;52.570;13.052;2023-08-01T02:20:37;1.10;;;1.00;;
23206;SDS011;11773;52.570;13.052;2023-08-01T02:23:06;0.80;;;0.80;;
23206;SDS011;11773;52.570;13.052;2023-08-01T02:25:39;1.00;;;0.97;;
23206;SDS011;11773;52.570;13.052;2023-08-01T02:28:09;0.70;;;0.70;;
23206;SDS011;11773;52.570;13.052;2023-08-01T02:30:39;1.00;;;0.90;;
23206;SDS011;11773;52.570;13.052;2023-08-01T02:33:09;1.17;;;0.83;;
23206;SDS011;11773;52.570;13.052;2023-08-01T02:35:39;1.10;;;1.00;;
23206;SDS011;11773;52.570;13.052;2023-08-01T02:38:09;0.97;;;0.93;;
23206;SDS011;11773;52.570;13.052;2023-08-01T02:40:38;1.10;;;1.00;;
23206;SDS011;11773;52.570;13.052;2023-08-01T02:43:08;1.10;;;1.00;;
23206;SDS011;11773;52.570;13.052;2023-08-01T02:45:37;0.50;;;0.50;;
23206;SDS011;11773;52.570;13.052;2023-08-01T02:48:09;0.97;;;0.80;;
23206;SDS011;11773;52.570;13.052;2023-08-01T02:50:39;0.93;;;0.93;;
23206;SDS011;11773;52.570;13.052;2023-08-01T02:53:08;0.80;;;0.80;;
23206;SDS011;11773;52.570;13.052;2023-08-01T02:55:38;1.07;;;0.87;;
23206;SDS011;11773;52.570;13.052;2023-08-01T02:58:07;1.30;;;1.20;;
23206;SDS011;11773;52.570;13.052;2023-08-01T03:00:37;1.77;;;1.13;;
23206;SDS011;11773;52.570;13.052;2023-08-01T03:03:07;0.97;;;0.90;;
23206;SDS011;11773;52.570;13.052;2023-08-01T03:05:37;0.90;;;0.90;;
23206;SDS011;11773;52.570;13.052;2023-08-01T03:08:07;1.27;;;1.17;;
23206;SDS011;11773;52.570;13.052;2023-08-01T03:10:36;1.07;;;0.90;;
23206;SDS011;11773;52.570;13.052;2023-08-01T03:13:06;1.10;;;0.70;;
23206;SDS011;11773;52.570;13.052;2023-08-01T03:15:35;0.70;;;0.70;;
23206;SDS011;11773;52.570;13.052;2023-08-01T03:18:06;0.70;;;0.70;;
23206;SDS011;11773;52.570;13.052;2023-08-01T03:20:35;1.30;;;1.20;;
23206;SDS011;11773;52.570;13.052;2023-08-01T03:23:05;0.70;;;0.70;;
23206;SDS011;11773;52.570;13.052;2023-08-01T03:25:34;0.80;;;0.80;;
23206;SDS011;11773;52.570;13.052;2023-08-01T03:28:04;0.67;;;0.67;;
23206;SDS011;11773;52.570;13.052;2023-08-01T03:30:34;1.03;;;1.00;;
23206;SDS011;11773;52.570;13.052;2023-08-01T03:33:03;0.77;;;0.77;;
23206;SDS011;11773;52.570;13.052;2023-08-01T03:35:33;1.00;;;1.00;;
23206;SDS011;11773;52.570;13.052;2023-08-01T03:38:02;0.70;;;0.70;;
23206;SDS011;11773;52.570;13.052;2023-08-01T03:40:32;1.00;;;0.87;;
23206;SDS011;11773;52.570;13.052;2023-08-01T03:43:02;1.00;;;0.90;;
23206;SDS011;11773;52.570;13.052;2023-08-01T03:45:32;1.07;;;1.00;;
23206;SDS011;11773;52.570;13.052;2023-08-01T03:48:02;1.40;;;1.30;;
23206;SDS011;11773;52.570;13.052;2023-08-01T03:50:32;1.00;;;1.00;;
23206;SDS011;11773;52.570;13.052;2023-08-01T03:53:02;1.07;;;0.97;;
23206;SDS011;11773;52.570;13.052;2023-08-01T03:55:31;1.10;;;1.00;;
23206;SDS011;11773;52.570;13.052;2023-08-01T03:58:01;0.80;;;0.70;;
23206;SDS011;11773;52.570;13.052;2023-08-01T04:00:30;1.40;;;0.80;;
23206;SDS011;11773;52.570;13.052;2023-08-01T04:03:01;0.97;;;0.97;;
23206;SDS011;11773;52.570;13.052;2023-08-01T04:05:30;0.80;;;0.70;;
23206;SDS011;11773;52.570;13.052;2023-08-01T04:08:01;0.80;;;0.80;;
23206;SDS011;11773;52.570;13.052;2023-08-01T04:10:31;1.10;;;1.00;;
23206;SDS011;11773;52.570;13.052;2023-08-01T04:13:01;0.70;;;0.70;;
23206;SDS011;11773;52.570;13.052;2023-08-01T04:15:31;1.17;;;0.77;;
23206;SDS011;11773;52.570;13.052;2023-08-01T04:18:00;1.30;;;1.20;;
23206;SDS011;11773;52.570;13.052;2023-08-01T04:20:30;0.90;;;0.90;;
23206;SDS011;11773;52.570;13.052;2023-08-01T04:22:59;0.60;;;0.60;;
23206;SDS011;11773;52.570;13.052;2023-08-01T04:25:29;1.27;;;1.10;;
23206;SDS011;11773;52.570;13.052;2023-08-01T04:27:58;0.90;;;0.90;;
23206;SDS011;11773;52.570;13.052;2023-08-01T04:30:28;1.50;;;1.40;;
23206;SDS011;11773;52.570;13.052;2023-08-01T04:32:59;1.30;;;1.13;;
23206;SDS011;11773;52.570;13.052;2023-08-01T04:35:29;1.20;;;1.10;;
23206;SDS011;11773;52.570;13.052;2023-08-01T04:37:58;1.07;;;1.00;;
23206;SDS011;11773;52.570;13.052;2023-08-01T04:40:28;0.80;;;0.80;;
23206;SDS011;11773;52.570;13.052;2023-08-01T04:42:58;0.73;;;0.73;;
23206;SDS011;11773;52.570;13.052;2023-08-01T04:45:29;0.67;;;0.67;;
23206;SDS011;11773;52.570;13.052;2023-08-01T04:47:59;1.10;;;1.00;;
23206;SDS011;11773;52.570;13.052;2023-08-01T04:50:28;0.93;;;0.87;;
23206;SDS011;11773;52.570;13.052;2023-08-01T04:52:58;0.70;;;0.70;;
23206;SDS011;11773;52.570;13.052;2023-08-01T04:55:27;0.77;;;0.77;;
23206;SDS011;11773;52.570;13.052;2023-08-01T04:57:57;0.80;;;0.80;;
23206;SDS011;11773;52.570;13.052;2023-08-01T05:00:26;0.80;;;0.80;;
23206;SDS011;11773;52.570;13.052;2023-08-01T05:02:56;0.90;;;0.90;;
23206;SDS011;11773;52.570;13.052;2023-08-01T05:05:26;0.67;;;0.67;;
23206;SDS011;11773;52.570;13.052;2023-08-01T05:07:55;0.80;;;0.80;;
23206;SDS011;11773;52.570;13.052;2023-08-01T05:10:25;0.63;;;0.63;;
23206;SDS011;11773;52.570;13.052;2023-08-01T05:12:54;0.70;;;0.70;;
23206;SDS011;11773;52.570;13.052;2023-08-01T05:15:24;0.93;;;0.80;;
23206;SDS011;11773;52.570;13.052;2023-08-01T05:17:55;0.67;;;0.67;;
23206;SDS011;11773;52.570;13.052;2023-08-01T05:20:25;0.63;;;0.63;;
23206;SDS011;11773;52.570;13.052;2023-08-01T05:22:59;0.40;;;0.40;;
23206;SDS011;11773;52.570;13.052;2023-08-01T05:25:28;0.70;;;0.70;;
23206;SDS011;11773;52.570;13.052;2023-08-01T05:27:58;0.53;;;0.53;;
23206;SDS011;11773;52.570;13.052;2023-08-01T05:30:28;0.70;;;0.70;;
23206;SDS011;11773;52.570;13.052;2023-08-01T05:32:57;0.80;;;0.80;;
23206;SDS011;11773;52.570;13.052;2023-08-01T05:35:27;0.80;;;0.80;;
23206;SDS011;11773;52.570;13.052;2023-08-01T05:37:57;0.73;;;0.73;;
23206;SDS011;11773;52.570;13.052;2023-08-01T05:40:27;0.70;;;0.70;;
23206;SDS011;11773;52.570;13.052;2023-08-01T05:42:56;0.63;;;0.63;;
23206;SDS011;11773;52.570;13.052;2023-08-01T05:45:26;0.90;;;0.60;;
23206;SDS011;11773;52.570;13.052;2023-08-01T05:47:55;0.77;;;0.77;;
23206;SDS011;11773;52.570;13.052;2023-08-01T05:50:25;0.60;;;0.60;;
23206;SDS011;11773;52.570;13.052;2023-08-01T05:52:54;0.83;;;0.80;;
23206;SDS011;11773;52.570;13.052;2023-08-01T05:55:24;1.00;;;1.00;;
23206;SDS011;11773;52.570;13.052;2023-08-01T05:57:54;0.40;;;0.40;;
23206;SDS011;11773;52.570;13.052;2023-08-01T06:00:24;0.70;;;0.70;;
23206;SDS011;11773;52.570;13.052;2023-08-01T06:02:54;0.70;;;0.70;;
23206;SDS011;11773;52.570;13.052;2023-08-01T06:05:24;0.70;;;0.70;;
23206;SDS011;11773;52.570;13.052;2023-08-01T06:07:53;0.70;;;0.70;;
23206;SDS011;11773;52.570;13.052;2023-08-01T06:10:23;0.87;;;0.77;;
23206;SDS011;11773;52.570;13.052;2023-08-01T06:12:53;0.90;;;0.90;;
23206;SDS011;11773;52.570;13.052;2023-08-01T06:15:22;1.90;;;0.80;;
23206;SDS011;11773;52.570;13.052;2023-08-01T06:17:52;1.00;;;1.00;;
23206;SDS011;11773;52.570;13.052;2023-08-01T06:20:22;0.70;;;0.70;;
23206;SDS011;11773;52.570;13.052;2023-08-01T06:22:52;0.60;;;0.60;;
23206;SDS011;11773;52.570;13.052;2023-08-01T06:25:21;0.90;;;0.90;;
23206;SDS011;11773;52.570;13.052;2023-08-01T06:27:51;1.30;;;1.20;;
23206;SDS011;11773;52.570;13.052;2023-08-01T06:30:20;0.83;;;0.83;;
23206;SDS011;11773;52.570;13.052;2023-08-01T06:32:50;1.20;;;1.10;;
23206;SDS011;11773;52.570;13.052;2023-08-01T06:35:20;0.60;;;0.60;;
23206;SDS011;11773;52.570;13.052;2023-08-01T06:37:49;0.77;;;0.77;;
23206;SDS011;11773;52.570;13.052;2023-08-01T06:40:19;0.83;;;0.83;;
23206;SDS011;11773;52.570;13.052;2023-08-01T06:42:48;0.87;;;0.87;;
23206;SDS011;11773;52.570;13.052;2023-08-01T06:45:18;0.77;;;0.77;;
23206;SDS011;11773;52.570;13.052;2023-08-01T06:47:47;0.97;;;0.90;;
23206;SDS011;11773;52.570;13.052;2023-08-01T06:50:17;0.80;;;0.80;;
23206;SDS011;11773;52.570;13.052;2023-08-01T06:52:47;0.73;;;0.73;;
23206;SDS011;11773;52.570;13.052;2023-08-01T06:55:16;0.90;;;0.90;;
23206;SDS011;11773;52.570;13.052;2023-08-01T06:57:46;0.90;;;0.90;;
23206;SDS011;11773;52.570;13.052;2023-08-01T07:00:15;0.70;;;0.70;;
23206;SDS011;11773;52.570;13.052;2023-08-01T07:02:45;0.70;;;0.70;;
23206;SDS011;11773;52.570;13.052;2023-08-01T07:05:15;0.60;;;0.60;;
23206;SDS011;11773;52.570;13.052;2023-08-01T07:07:46;0.80;;;0.80;;
23206;SDS011;11773;52.570;13.052;2023-08-01T07:10:16;1.20;;;1.10;;
23206;SDS011;11773;52.570;13.052;2023-08-01T07:12:47;0.90;;;0.90;;
23206;SDS011;11773;52.570;13.052;2023-08-01T07:15:16;0.80;;;0.80;;
23206;SDS011;11773;52.570;13.052;2023-08-01T07:17:46;1.20;;;1.10;;
23206;SDS011;11773;52.570;13.052;2023-08-01T07:20:16;0.90;;;0.88;;
23206;SDS011;11773;52.570;13.052;2023-08-01T07:22:46;1.20;;;1.10;;
23206;SDS011;11773;52.570;13.052;2023-08-01T07:25:15;1.00;;;0.90;;
23206;SDS011;11773;52.570;13.052;2023-08-01T07:27:46;0.83;;;0.83;;
23206;SDS011;11773;52.570;13.052;2023-08-01T07:30:15;1.30;;;1.20;;
23206;SDS011;11773;52.570;13.052;2023-08-01T07:32:45;1.17;;;1.07;;
23206;SDS011;11773;52.570;13.052;2023-08-01T07:35:15;1.57;;;1.23;;
23206;SDS011;11773;52.570;13.052;2023-08-01T07:37:45;1.00;;;1.00;;
23206;SDS011;11773;52.570;13.052;2023-08-01T07:40:14;1.27;;;1.17;;
23206;SDS011;11773;52.570;13.052;2023-08-01T07:42:44;0.90;;;0.90;;
23206;SDS011;11773;52.570;13.052;2023-08-01T07:45:13;1.13;;;1.03;;
23206;SDS011;11773;52.570;13.052;2023-08-01T07:47:43;1.13;;;1.13;;
23206;SDS011;11773;52.570;13.052;2023-08-01T07:50:13;0.80;;;0.80;;
23206;SDS011;11773;52.570;13.052;2023-08-01T07:52:45;1.40;;;1.30;;
23206;SDS011;11773;52.570;13.052;2023-08-01T07:55:15;0.97;;;0.90;;
23206;SDS011;11773;52.570;13.052;2023-08-01T07:57:45;1.27;;;1.17;;
23206;SDS011;11773;52.570;13.052;2023-08-01T08:00:15;0.83;;;0.83;;
23206;SDS011;11773;52.570;13.052;2023-08-01T08:02:45;1.33;;;1.00;;
23206;SDS011;11773;52.570;13.052;2023-08-01T08:05:15;0.93;;;0.83;;
23206;SDS011;11773;52.570;13.052;2023-08-01T08:07:45;0.50;;;0.50;;
23206;SDS011;11773;52.570;13.052;2023-08-01T08:10:14;0.70;;;0.70;;
23206;SDS011;11773;52.570;13.052;2023-08-01T08:12:44;0.93;;;0.93;;
23206;SDS011;11773;52.570;13.052;2023-08-01T08:15:14;1.03;;;0.93;;
23206;SDS011;11773;52.570;13.052;2023-08-01T08:17:44;0.70;;;0.70;;
23206;SDS011;11773;52.570;13.052;2023-08-01T08:20:14;0.60;;;0.60;;
23206;SDS011;11773;52.570;13.052;2023-08-01T08:22:43;0.70;;;0.70;;
23206;SDS011;11773;52.570;13.052;2023-08-01T08:25:13;1.07;;;0.77;;
23206;SDS011;11773;52.570;13.052;2023-08-01T08:27:43;0.43;;;0.43;;
23206;SDS011;11773;52.570;13.052;2023-08-01T08:30:12;0.70;;;0.50;;
23206;SDS011;11773;52.570;13.052;2023-08-01T08:32:42;1.17;;;0.70;;
23206;SDS011;11773;52.570;13.052;2023-08-01T08:35:11;0.70;;;0.67;;
23206;SDS011;11773;52.570;13.052;2023-08-01T08:37:41;0.60;;;0.60;;
23206;SDS011;11773;52.570;13.052;2023-08-01T08:40:12;0.60;;;0.50;;
23206;SDS011;11773;52.570;13.052;2023-08-01T08:42:41;0.50;;;0.50;;
23206;SDS011;11773;52.570;13.052;2023-08-01T08:45:14;1.40;;;0.73;;
23206;SDS011;11773;52.570;13.052;2023-08-01T08:47:53;0.50;;;0.50;;
23206;SDS011;11773;52.570;13.052;2023-08-01T08:50:24;0.80;;;0.80;;
23206;SDS011;11773;52.570;13.052;2023-08-01T08:52:56;0.50;;;0.50;;
23206;SDS011;11773;52.570;13.052;2023-08-01T08:55:27;0.60;;;0.60;;
23206;SDS011;11773;52.570;13.052;2023-08-01T08:57:58;0.37;;;0.37;;
23206;SDS011;11773;52.570;13.052;2023-08-01T09:00:28;0.50;;;0.50;;
23206;SDS011;11773;52.570;13.052;2023-08-01T09:02:58;0.50;;;0.50;;
23206;SDS011;11773;52.570;13.052;2023-08-01T09:05:29;0.40;;;0.40;;
23206;SDS011;11773;52.570;13.052;2023-08-01T09:08:20;0.63;;;0.63;;
23206;SDS011;11773;52.570;13.052;2023-08-01T09:10:53;0.60;;;0.60;;
23206;SDS011;11773;52.570;13.052;2023-08-01T09:13:22;0.50;;;0.50;;
23206;SDS011;11773;52.570;13.052;2023-08-01T09:15:52;0.50;;;0.50;;
23206;SDS011;11773;52.570;13.052;2023-08-01T09:18:22;0.50;;;0.50;;
23206;SDS011;11773;52.570;13.052;2023-08-01T09:20:52;0.63;;;0.63;;
23206;SDS011;11773;52.570;13.052;2023-08-01T09:23:24;0.40;;;0.40;;
23206;SDS011;11773;52.570;13.052;2023-08-01T09:25:54;0.50;;;0.50;;
23206;SDS011;11773;52.570;13.052;2023-08-01T09:28:25;0.30;;;0.30;;
23206;SDS011;11773;52.570;13.052;2023-08-01T09:30:55;0.40;;;0.40;;
23206;SDS011;11773;52.570;13.052;2023-08-01T09:33:25;0.53;;;0.53;;
23206;SDS011;11773;52.570;13.052;2023-08-01T09:35:58;0.30;;;0.30;;
23206;SDS011;11773;52.570;13.052;2023-08-01T09:38:33;0.30;;;0.30;;
23206;SDS011;11773;52.570;13.052;2023-08-01T09:41:16;0.50;;;0.50;;
23206;SDS011;11773;52.570;13.052;2023-08-01T09:43:37;0.40;;;0.40;;
23206;SDS011;11773;52.570;13.052;2023-08-01T09:46:06;0.60;;;0.60;;
23206;SDS011;11773;52.570;13.052;2023-08-01T09:48:36;0.40;;;0.40;;
23206;SDS011;11773;52.570;13.052;2023-08-01T09:51:10;0.30;;;0.30;;
23206;SDS011;11773;52.570;13.052;2023-08-01T09:53:52;0.40;;;0.40;;
23206;SDS011;11773;52.570;13.052;2023-08-01T09:56:25;0.20;;;0.20;;
23206;SDS011;11773;52.570;13.052;2023-08-01T09:58:56;0.67;;;0.60;;
23206;SDS011;11773;52.570;13.052;2023-08-01T10:01:27;0.30;;;0.30;;
23206;SDS011;11773;52.570;13.052;2023-08-01T10:04:01;0.47;;;0.47;;
23206;SDS011;11773;52.570;13.052;2023-08-01T10:06:33;0.30;;;0.30;;
23206;SDS011;11773;52.570;13.052;2023-08-01T10:09:05;0.40;;;0.40;;
23206;SDS011;11773;52.570;13.052;2023-08-01T10:11:38;0.40;;;0.40;;
23206;SDS011;11773;52.570;13.052;2023-08-01T10:14:10;0.93;;;0.40;;
23206;SDS011;11773;52.570;13.052;2023-08-01T10:16:40;0.50;;;0.50;;
23206;SDS011;11773;52.570;13.052;2023-08-01T10:19:12;0.40;;;0.40;;
23206;SDS011;11773;52.570;13.052;2023-08-01T10:21:42;0.30;;;0.30;;
23206;SDS011;11773;52.570;13.052;2023-08-01T10:24:15;0.50;;;0.50;;
23206;SDS011;11773;52.570;13.052;2023-08-01T10:26:47;0.20;;;0.20;;
23206;SDS011;11773;52.570;13.052;2023-08-01T10:29:16;0.40;;;0.40;;
23206;SDS011;11773;52.570;13.052;2023-08-01T10:31:52;0.30;;;0.30;;
23206;SDS011;11773;52.570;13.052;2023-08-01T10:34:22;0.50;;;0.50;;
23206;SDS011;11773;52.570;13.052;2023-08-01T10:36:55;0.33;;;0.33;;
23206;SDS011;11773;52.570;13.052;2023-08-01T10:39:26;0.30;;;0.30;;
23206;SDS011;11773;52.570;13.052;2023-08-01T10:42:00;0.30;;;0.30;;
23206;SDS011;11773;52.570;13.052;2023-08-01T10:44:44;0.40;;;0.40;;
23206;SDS011;11773;52.570;13.052;2023-08-01T10:47:09;0.37;;;0.37;;
23206;SDS011;11773;52.570;13.052;2023-08-01T10:49:43;1.00;;;0.80;;
23206;SDS011;11773;52.570;13.052;2023-08-01T10:52:17;0.63;;;0.63;;
23206;SDS011;11773;52.570;13.052;2023-08-01T10:55:01;0.60;;;0.60;;
23206;SDS011;11773;52.570;13.052;2023-08-01T10:57:36;0.87;;;0.87;;
23206;SDS011;11773;52.570;13.052;2023-08-01T11:00:17;0.60;;;0.60;;
23206;SDS011;11773;52.570;13.052;2023-08-01T11:02:50;0.60;;;0.60;;
23206;SDS011;11773;52.570;13.052;2023-08-01T11:05:21;0.60;;;0.60;;
23206;SDS011;11773;52.570;13.052;2023-08-01T11:07:59;0.63;;;0.63;;
23206;SDS011;11773;52.570;13.052;2023-08-01T11:10:32;0.60;;;0.60;;
23206;SDS011;11773;52.570;13.052;2023-08-01T11:13:02;0.57;;;0.57;;
23206;SDS011;11773;52.570;13.052;2023-08-01T11:15:32;0.50;;;0.50;;
23206;SDS011;11773;52.570;13.052;2023-08-01T11:18:05;0.60;;;0.60;;
23206;SDS011;11773;52.570;13.052;2023-08-01T11:20:38;0.70;;;0.70;;
23206;SDS011;11773;52.570;13.052;2023-08-01T11:23:08;0.80;;;0.73;;
23206;SDS011;11773;52.570;13.052;2023-08-01T11:25:41;1.00;;;0.80;;
23206;SDS011;11773;52.570;13.052;2023-08-01T11:28:14;0.80;;;0.80;;
23206;SDS011;11773;52.570;13.052;2023-08-01T11:30:45;0.80;;;0.80;;
23206;SDS011;11773;52.570;13.052;2023-08-01T11:33:18;1.00;;;0.97;;
23206;SDS011;11773;52.570;13.052;2023-08-01T11:35:50;0.87;;;0.57;;
23206;SDS011;11773;52.570;13.052;2023-08-01T11:38:27;0.83;;;0.83;;
23206;SDS011;11773;52.570;13.052;2023-08-01T11:41:00;0.70;;;0.70;;
23206;SDS011;11773;52.570;13.052;2023-08-01T11:43:41;1.10;;;1.00;;
23206;SDS011;11773;52.570;13.052;2023-08-01T11:46:12;0.93;;;0.93;;
23206;SDS011;11773;52.570;13.052;2023-08-01T11:48:45;1.07;;;0.97;;
23206;SDS011;11773;52.570;13.052;2023-08-01T11:51:17;1.00;;;1.00;;
23206;SDS011;11773;52.570;13.052;2023-08-01T11:53:46;0.80;;;0.80;;
23206;SDS011;11773;52.570;13.052;2023-08-01T11:56:30;0.90;;;0.90;;
23206;SDS011;11773;52.570;13.052;2023-08-01T11:59:07;1.17;;;1.17;;
23206;SDS011;11773;52.570;13.052;2023-08-01T12:01:40;1.27;;;1.17;;
23206;SDS011;11773;52.570;13.052;2023-08-01T12:04:25;1.40;;;1.30;;
23206;SDS011;11773;52.570;13.052;2023-08-01T12:06:56;1.00;;;1.00;;
23206;SDS011;11773;52.570;13.052;2023-08-01T12:09:25;1.37;;;1.20;;
23206;SDS011;11773;52.570;13.052;2023-08-01T12:11:58;1.40;;;1.30;;
23206;SDS011;11773;52.570;13.052;2023-08-01T12:14:28;1.43;;;1.33;;
23206;SDS011;11773;52.570;13.052;2023-08-01T12:16:58;1.57;;;1.17;;
23206;SDS011;11773;52.570;13.052;2023-08-01T12:19:28;1.17;;;1.13;;
23206;SDS011;11773;52.570;13.052;2023-08-01T12:21:57;1.37;;;1.27;;
23206;SDS011;11773;52.570;13.052;2023-08-01T12:24:27;1.10;;;1.10;;
23206;SDS011;11773;52.570;13.052;2023-08-01T12:26:57;1.30;;;1.20;;
23206;SDS011;11773;52.570;13.052;2023-08-01T12:29:26;1.40;;;1.30;;
23206;SDS011;11773;52.570;13.052;2023-08-01T12:31:56;1.40;;;1.30;;
23206;SDS011;11773;52.570;13.052;2023-08-01T12:34:26;1.30;;;1.20;;
23206;SDS011;11773;52.570;13.052;2023-08-01T12:36:55;1.23;;;1.07;;
23206;SDS011;11773;52.570;13.052;2023-08-01T12:39:25;1.33;;;1.20;;
23206;SDS011;11773;52.570;13.052;2023-08-01T12:41:55;1.53;;;1.40;;
23206;SDS011;11773;52.570;13.052;2023-08-01T12:44:24;1.40;;;1.30;;
23206;SDS011;11773;52.570;13.052;2023-08-01T12:46:54;1.47;;;1.37;;
23206;SDS011;11773;52.570;13.052;2023-08-01T12:49:23;1.30;;;1.20;;
23206;SDS011;11773;52.570;13.052;2023-08-01T12:51:53;1.43;;;1.33;;
23206;SDS011;11773;52.570;13.052;2023-08-01T12:54:24;1.50;;;1.40;;
23206;SDS011;11773;52.570;13.052;2023-08-01T12:56:54;1.40;;;1.30;;
23206;SDS011;11773;52.570;13.052;2023-08-01T12:59:23;1.30;;;1.20;;
23206;SDS011;11773;52.570;13.052;2023-08-01T13:01:53;1.70;;;1.60;;
23206;SDS011;11773;52.570;13.052;2023-08-01T13:04:22;1.60;;;1.50;;
23206;SDS011;11773;52.570;13.052;2023-08-01T13:06:52;1.23;;;1.13;;
23206;SDS011;11773;52.570;13.052;2023-08-01T13:09:22;1.20;;;1.10;;
23206;SDS011;11773;52.570;13.052;2023-08-01T13:11:51;1.53;;;1.40;;
23206;SDS011;11773;52.570;13.052;2023-08-01T13:14:21;1.23;;;1.13;;
23206;SDS011;11773;52.570;13.052;2023-08-01T13:16:52;1.40;;;1.30;;
23206;SDS011;11773;52.570;13.052;2023-08-01T13:19:21;1.20;;;1.10;;
23206;SDS011;11773;52.570;13.052;2023-08-01T13:21:51;1.57;;;1.47;;
23206;SDS011;11773;52.570;13.052;2023-08-01T13:24:21;1.50;;;1.40;;
23206;SDS011;11773;52.570;13.052;2023-08-01T13:26:50;1.50;;;1.40;;
23206;SDS011;11773;52.570;13.052;2023-08-01T13:29:20;1.00;;;1.00;;
23206;SDS011;11773;52.570;13.052;2023-08-01T13:31:49;1.23;;;1.10;;
23206;SDS011;11773;52.570;13.052;2023-08-01T13:34:19;1.37;;;1.20;;
23206;SDS011;11773;52.570;13.052;2023-08-01T13:36:49;1.80;;;1.70;;
23206;SDS011;11773;52.570;13.052;2023-08-01T13:39:18;1.77;;;1.40;;
23206;SDS011;11773;52.570;13.052;2023-08-01T13:41:48;1.17;;;1.17;;
23206;SDS011;11773;52.570;13.052;2023-08-01T13:44:17;1.73;;;1.50;;
23206;SDS011;11773;52.570;13.052;2023-08-01T13:46:47;1.70;;;1.60;;
23206;SDS011;11773;52.570;13.052;2023-08-01T13:49:17;1.67;;;1.57;;
23206;SDS011;11773;52.570;13.052;2023-08-01T13:51:46;1.83;;;1.53;;
23206;SDS011;11773;52.570;13.052;2023-08-01T13:54:16;1.60;;;1.47;;
23206;SDS011;11773;52.570;13.052;2023-08-01T13:56:45;1.10;;;1.10;;
23206;SDS011;11773;52.570;13.052;2023-08-01T13:59:15;1.40;;;1.30;;
23206;SDS011;11773;52.570;13.052;2023-08-01T14:01:45;1.20;;;1.10;;
23206;SDS011;11773;52.570;13.052;2023-08-01T14:04:15;1.27;;;1.27;;
23206;SDS011;11773;52.570;13.052;2023-08-01T14:06:45;1.27;;;1.17;;
23206;SDS011;11773;52.570;13.052;2023-08-01T14:09:14;1.17;;;1.17;;
23206;SDS011;11773;52.570;13.052;2023-08-01T14:11:44;1.47;;;1.33;;
23206;SDS011;11773;52.570;13.052;2023-08-01T14:14:13;1.50;;;1.40;;
23206;SDS011;11773;52.570;13.052;2023-08-01T14:16:44;1.40;;;1.30;;
23206;SDS011;11773;52.570;13.052;2023-08-01T14:19:14;1.43;;;1.33;;
23206;SDS011;11773;52.570;13.052;2023-08-01T14:21:44;1.43;;;1.30;;
23206;SDS011;11773;52.570;13.052;2023-08-01T14:24:13;1.20;;;1.10;;
23206;SDS011;11773;52.570;13.052;2023-08-01T14:26:43;1.23;;;1.13;;
23206;SDS011;11773;52.570;13.052;2023-08-01T14:29:12;1.80;;;1.30;;
23206;SDS011;11773;52.570;13.052;2023-08-01T14:31:42;0.90;;;0.90;;
23206;SDS011;11773;52.570;13.052;2023-08-01T14:34:11;1.00;;;1.00;;
23206;SDS011;11773;52.570;13.052;2023-08-01T14:36:41;1.10;;;1.00;;
23206;SDS011;11773;52.570;13.052;2023-08-01T14:39:11;1.37;;;1.20;;
23206;SDS011;11773;52.570;13.052;2023-08-01T14:41:42;1.10;;;1.00;;
23206;SDS011;11773;52.570;13.052;2023-08-01T14:44:13;1.00;;;1.00;;
23206;SDS011;11773;52.570;13.052;2023-08-01T14:46:43;1.10;;;1.00;;
23206;SDS011;11773;52.570;13.052;2023-08-01T14:49:12;1.00;;;0.90;;
23206;SDS011;11773;52.570;13.052;2023-08-01T14:51:43;1.23;;;0.90;;